sensor_id;sensor_type;location;lat;lon;timestamp;pressure;altitude;pressure_sealevel;temperature;humidity
56668;BME280;42542;48.360;10.958;2023-03-03T00:01:51;96236.91;;;-0.47;92.19
56668;BME280;42542;48.360;10.958;2023-03-03T00:04:53;96243.09;;;-0.48;91.89
56668;BME280;42542;48.360;10.958;2023-03-03T00:07:55;96245.94;;;-0.51;92.10
56668;BME280;42542;48.360;10.958;2023-03-03T00:10:57;96239.91;;;-0.53;91.46
56668;BME280;42542;48.360;10.958;2023-03-03T00:14:17;96235.88;;;-0.59;91.58
56668;BME280;42542;48.360;10.958;2023-03-03T00:17:27;96242.84;;;-0.58;91.39
56668;BME280;42542;48.360;10.958;2023-03-03T00:20:38;96237.75;;;-0.61;91.30
56668;BME280;42542;48.360;10.958;2023-03-03T00:23:40;96243.09;;;-0.62;91.53
56668;BME280;42542;48.360;10.958;2023-03-03T00:26:55;96238.91;;;-0.65;91.65
56668;BME280;42542;48.360;10.958;2023-03-03T00:30:05;96244.22;;;-0.66;92.19
56668;BME280;42542;48.360;10.958;2023-03-03T00:33:43;96238.22;;;-0.68;92.16
56668;BME280;42542;48.360;10.958;2023-03-03T00:36:48;96229.50;;;-0.69;92.16
56668;BME280;42542;48.360;10.958;2023-03-03T00:39:52;96233.06;;;-0.70;92.21
56668;BME280;42542;48.360;10.958;2023-03-03T00:42:57;96229.78;;;-0.73;92.05
56668;BME280;42542;48.360;10.958;2023-03-03T00:46:00;96235.13;;;-0.75;91.68
56668;BME280;42542;48.360;10.958;2023-03-03T00:49:10;96245.72;;;-0.76;91.96
56668;BME280;42542;48.360;10.958;2023-03-03T00:52:26;96247.50;;;-0.77;92.34
56668;BME280;42542;48.360;10.958;2023-03-03T00:55:31;96244.03;;;-0.77;91.95
56668;BME280;42542;48.360;10.958;2023-03-03T00:58:34;96244.22;;;-0.81;91.79
56668;BME280;42542;48.360;10.958;2023-03-03T01:01:36;96235.59;;;-0.83;91.85
56668;BME280;42542;48.360;10.958;2023-03-03T01:04:39;96245.25;;;-0.83;92.32
56668;BME280;42542;48.360;10.958;2023-03-03T01:07:42;96241.00;;;-0.86;92.07
56668;BME280;42542;48.360;10.958;2023-03-03T01:10:49;96238.50;;;-0.87;91.80
56668;BME280;42542;48.360;10.958;2023-03-03T01:13:51;96239.44;;;-0.88;91.88
56668;BME280;42542;48.360;10.958;2023-03-03T01:16:53;96240.44;;;-0.91;91.83
56668;BME280;42542;48.360;10.958;2023-03-03T01:19:58;96223.41;;;-0.98;92.07
56668;BME280;42542;48.360;10.958;2023-03-03T01:23:01;96231.94;;;-0.94;92.40
56668;BME280;42542;48.360;10.958;2023-03-03T01:26:05;96227.63;;;-0.95;91.87
56668;BME280;42542;48.360;10.958;2023-03-03T01:29:08;96219.84;;;-0.97;92.25
56668;BME280;42542;48.360;10.958;2023-03-03T01:32:10;96213.91;;;-1.00;92.09
56668;BME280;42542;48.360;10.958;2023-03-03T01:35:13;96223.47;;;-0.99;92.44
56668;BME280;42542;48.360;10.958;2023-03-03T01:38:15;96221.91;;;-1.02;92.60
56668;BME280;42542;48.360;10.958;2023-03-03T01:41:18;96219.28;;;-1.02;92.64
56668;BME280;42542;48.360;10.958;2023-03-03T01:44:20;96222.84;;;-1.03;93.16
56668;BME280;42542;48.360;10.958;2023-03-03T01:47:27;96226.38;;;-1.04;92.57
56668;BME280;42542;48.360;10.958;2023-03-03T01:50:41;96229.94;;;-1.05;93.30
56668;BME280;42542;48.360;10.958;2023-03-03T01:53:50;96230.03;;;-1.06;93.04
56668;BME280;42542;48.360;10.958;2023-03-03T01:56:58;96224.06;;;-1.08;92.60
56668;BME280;42542;48.360;10.958;2023-03-03T02:00:04;96237.16;;;-1.08;92.60
56668;BME280;42542;48.360;10.958;2023-03-03T02:03:12;96231.16;;;-1.10;92.69
56668;BME280;42542;48.360;10.958;2023-03-03T02:06:18;96230.41;;;-1.12;92.48
56668;BME280;42542;48.360;10.958;2023-03-03T02:12:52;96222.72;;;-1.15;92.76
56668;BME280;42542;48.360;10.958;2023-03-03T02:15:57;96227.13;;;-1.16;92.80
56668;BME280;42542;48.360;10.958;2023-03-03T02:19:04;96228.97;;;-1.18;92.53
56668;BME280;42542;48.360;10.958;2023-03-03T02:22:13;96222.91;;;-1.19;92.79
56668;BME280;42542;48.360;10.958;2023-03-03T02:25:23;96214.25;;;-1.21;92.83
56668;BME280;42542;48.360;10.958;2023-03-03T02:28:31;96208.19;;;-1.21;92.68
56668;BME280;42542;48.360;10.958;2023-03-03T02:31:38;96203.13;;;-1.24;92.32
56668;BME280;42542;48.360;10.958;2023-03-03T02:34:48;96205.00;;;-1.26;92.57
56668;BME280;42542;48.360;10.958;2023-03-03T02:37:51;96197.41;;;-1.31;92.49
56668;BME280;42542;48.360;10.958;2023-03-03T02:44:31;96207.91;;;-1.31;92.88
56668;BME280;42542;48.360;10.958;2023-03-03T02:47:34;96206.28;;;-1.33;92.80
56668;BME280;42542;48.360;10.958;2023-03-03T02:50:37;96201.13;;;-1.35;92.97
56668;BME280;42542;48.360;10.958;2023-03-03T02:53:39;96214.22;;;-1.35;92.68
56668;BME280;42542;48.360;10.958;2023-03-03T02:56:43;96209.06;;;-1.36;92.75
56668;BME280;42542;48.360;10.958;2023-03-03T02:59:45;96210.13;;;-1.39;92.40
56668;BME280;42542;48.360;10.958;2023-03-03T03:02:50;96212.66;;;-1.37;92.22
56668;BME280;42542;48.360;10.958;2023-03-03T03:05:53;96211.03;;;-1.40;92.49
56668;BME280;42542;48.360;10.958;2023-03-03T03:08:57;96212.91;;;-1.42;92.64
56668;BME280;42542;48.360;10.958;2023-03-03T03:12:00;96205.03;;;-1.42;92.52
56668;BME280;42542;48.360;10.958;2023-03-03T03:15:07;96197.47;;;-1.46;92.25
56668;BME280;42542;48.360;10.958;2023-03-03T03:18:10;96203.34;;;-1.43;93.01
56668;BME280;42542;48.360;10.958;2023-03-03T03:21:12;96201.09;;;-1.49;92.50
56668;BME280;42542;48.360;10.958;2023-03-03T03:24:15;96205.03;;;-1.42;92.69
56668;BME280;42542;48.360;10.958;2023-03-03T03:27:24;96202.34;;;-1.40;93.34
56668;BME280;42542;48.360;10.958;2023-03-03T03:30:29;96204.13;;;-1.41;93.48
56668;BME280;42542;48.360;10.958;2023-03-03T03:33:33;96204.78;;;-1.37;93.98
56668;BME280;42542;48.360;10.958;2023-03-03T03:36:35;96207.91;;;-1.31;93.96
56668;BME280;42542;48.360;10.958;2023-03-03T03:39:41;96213.88;;;-1.29;94.47
56668;BME280;42542;48.360;10.958;2023-03-03T03:42:43;96219.88;;;-1.27;94.98
56668;BME280;42542;48.360;10.958;2023-03-03T03:45:46;96224.75;;;-1.21;94.90
56668;BME280;42542;48.360;10.958;2023-03-03T03:48:49;96214.25;;;-1.21;94.85
56668;BME280;42542;48.360;10.958;2023-03-03T03:51:53;96217.28;;;-1.12;95.06
56668;BME280;42542;48.360;10.958;2023-03-03T03:54:58;96223.09;;;-1.07;95.18
56668;BME280;42542;48.360;10.958;2023-03-03T03:58:03;96221.22;;;-1.05;95.35
56668;BME280;42542;48.360;10.958;2023-03-03T04:01:06;96219.06;;;-0.99;95.65
56668;BME280;42542;48.360;10.958;2023-03-03T04:04:15;96225.00;;;-0.95;95.49
56668;BME280;42542;48.360;10.958;2023-03-03T04:07:18;96228.19;;;-0.90;95.45
56668;BME280;42542;48.360;10.958;2023-03-03T04:10:21;96224.41;;;-0.86;95.93
56668;BME280;42542;48.360;10.958;2023-03-03T04:13:23;96225.09;;;-0.83;95.66
56668;BME280;42542;48.360;10.958;2023-03-03T04:16:25;96222.09;;;-0.76;95.77
56668;BME280;42542;48.360;10.958;2023-03-03T04:19:26;96216.66;;;-0.73;95.78
56668;BME280;42542;48.360;10.958;2023-03-03T04:22:29;96216.28;;;-0.67;95.96
56668;BME280;42542;48.360;10.958;2023-03-03T04:25:40;96221.34;;;-0.64;95.97
56668;BME280;42542;48.360;10.958;2023-03-03T04:28:48;96221.00;;;-0.58;95.89
56668;BME280;42542;48.360;10.958;2023-03-03T04:31:51;96222.47;;;-0.54;96.16
56668;BME280;42542;48.360;10.958;2023-03-03T04:34:55;96217.03;;;-0.51;96.03
56668;BME280;42542;48.360;10.958;2023-03-03T04:38:10;96218.53;;;-0.47;96.12
56668;BME280;42542;48.360;10.958;2023-03-03T04:41:12;96214.75;;;-0.43;96.65
56668;BME280;42542;48.360;10.958;2023-03-03T04:44:15;96217.13;;;-0.38;96.51
56668;BME280;42542;48.360;10.958;2023-03-03T04:47:18;96222.16;;;-0.35;96.12
56668;BME280;42542;48.360;10.958;2023-03-03T04:50:21;96218.50;;;-0.33;96.88
56668;BME280;42542;48.360;10.958;2023-03-03T04:53:23;96205.19;;;-0.30;96.43
56668;BME280;42542;48.360;10.958;2023-03-03T04:56:25;96211.84;;;-0.24;96.44
56668;BME280;42542;48.360;10.958;2023-03-03T04:59:30;96210.81;;;-0.22;96.81
56668;BME280;42542;48.360;10.958;2023-03-03T05:02:32;96214.09;;;-0.18;96.05
56668;BME280;42542;48.360;10.958;2023-03-03T05:05:35;96213.91;;;-0.15;96.27
56668;BME280;42542;48.360;10.958;2023-03-03T05:08:38;96210.31;;;-0.14;96.55
56668;BME280;42542;48.360;10.958;2023-03-03T05:11:40;96207.50;;;-0.11;96.25
56668;BME280;42542;48.360;10.958;2023-03-03T05:14:42;96206.47;;;-0.09;96.45
56668;BME280;42542;48.360;10.958;2023-03-03T05:17:44;96214.13;;;-0.06;96.93
56668;BME280;42542;48.360;10.958;2023-03-03T05:20:46;96225.31;;;-0.02;96.34
56668;BME280;42542;48.360;10.958;2023-03-03T05:23:48;96208.78;;;-0.04;96.31
56668;BME280;42542;48.360;10.958;2023-03-03T05:26:50;96225.84;;;0.03;96.20
56668;BME280;42542;48.360;10.958;2023-03-03T05:29:52;96220.59;;;0.03;96.39
56668;BME280;42542;48.360;10.958;2023-03-03T05:32:54;96230.94;;;0.06;96.03
56668;BME280;42542;48.360;10.958;2023-03-03T05:35:56;96229.88;;;0.09;96.83
56668;BME280;42542;48.360;10.958;2023-03-03T05:39:00;96239.34;;;0.11;96.05
56668;BME280;42542;48.360;10.958;2023-03-03T05:42:03;96240.28;;;0.10;96.66
56668;BME280;42542;48.360;10.958;2023-03-03T05:45:06;96244.41;;;0.14;96.67
56668;BME280;42542;48.360;10.958;2023-03-03T05:48:08;96237.06;;;0.19;96.15
56668;BME280;42542;48.360;10.958;2023-03-03T05:51:11;96249.06;;;0.23;96.16
56668;BME280;42542;48.360;10.958;2023-03-03T05:54:13;96237.06;;;0.19;96.25
56668;BME280;42542;48.360;10.958;2023-03-03T05:57:15;96242.03;;;0.24;96.89
56668;BME280;42542;48.360;10.958;2023-03-03T06:00:17;96253.06;;;0.29;96.27
56668;BME280;42542;48.360;10.958;2023-03-03T06:03:19;96259.84;;;0.33;96.22
56668;BME280;42542;48.360;10.958;2023-03-03T06:06:21;96251.03;;;0.34;96.76
56668;BME280;42542;48.360;10.958;2023-03-03T06:09:23;96259.53;;;0.37;96.69
56668;BME280;42542;48.360;10.958;2023-03-03T06:12:27;96261.13;;;0.40;96.49
56668;BME280;42542;48.360;10.958;2023-03-03T06:15:32;96266.22;;;0.43;96.69
56668;BME280;42542;48.360;10.958;2023-03-03T06:18:35;96261.13;;;0.40;96.25
56668;BME280;42542;48.360;10.958;2023-03-03T06:21:37;96274.63;;;0.48;96.85
56668;BME280;42542;48.360;10.958;2023-03-03T06:24:40;96261.47;;;0.48;96.63
56668;BME280;42542;48.360;10.958;2023-03-03T06:27:43;96268.03;;;0.55;96.30
56668;BME280;42542;48.360;10.958;2023-03-03T06:30:44;96270.56;;;0.57;96.43
56668;BME280;42542;48.360;10.958;2023-03-03T06:33:47;96274.75;;;0.59;96.11
56668;BME280;42542;48.360;10.958;2023-03-03T06:36:49;96278.06;;;0.63;96.75
56668;BME280;42542;48.360;10.958;2023-03-03T06:39:51;96277.84;;;0.66;97.05
56668;BME280;42542;48.360;10.958;2023-03-03T06:42:53;96286.38;;;0.69;96.93
56668;BME280;42542;48.360;10.958;2023-03-03T06:45:56;96288.94;;;0.71;96.79
56668;BME280;42542;48.360;10.958;2023-03-03T06:48:58;96292.94;;;0.76;96.89
56668;BME280;42542;48.360;10.958;2023-03-03T06:52:11;96278.94;;;0.76;97.08
56668;BME280;42542;48.360;10.958;2023-03-03T06:55:21;96296.00;;;0.83;96.44
56668;BME280;42542;48.360;10.958;2023-03-03T06:58:24;96300.94;;;0.88;96.43
56668;BME280;42542;48.360;10.958;2023-03-03T07:01:34;96307.81;;;0.90;96.58
56668;BME280;42542;48.360;10.958;2023-03-03T07:04:37;96297.81;;;0.95;96.95
56668;BME280;42542;48.360;10.958;2023-03-03T07:07:41;96301.09;;;0.99;96.93
56668;BME280;42542;48.360;10.958;2023-03-03T07:10:45;96308.69;;;1.03;96.74
56668;BME280;42542;48.360;10.958;2023-03-03T07:13:53;96297.88;;;1.08;96.05
56668;BME280;42542;48.360;10.958;2023-03-03T07:16:58;96301.13;;;1.11;96.00
56668;BME280;42542;48.360;10.958;2023-03-03T07:20:17;96295.75;;;1.13;96.13
56668;BME280;42542;48.360;10.958;2023-03-03T07:23:25;96304.63;;;1.25;96.70
56668;BME280;42542;48.360;10.958;2023-03-03T07:26:30;96305.16;;;1.30;95.63
56668;BME280;42542;48.360;10.958;2023-03-03T07:29:36;96305.78;;;1.33;95.75
56668;BME280;42542;48.360;10.958;2023-03-03T07:32:44;96312.66;;;1.36;96.08
56668;BME280;42542;48.360;10.958;2023-03-03T07:35:47;96307.16;;;1.39;96.01
56668;BME280;42542;48.360;10.958;2023-03-03T07:38:54;96306.63;;;1.46;95.61
56668;BME280;42542;48.360;10.958;2023-03-03T07:45:31;96308.75;;;1.54;95.24
56668;BME280;42542;48.360;10.958;2023-03-03T07:48:37;96310.25;;;1.58;95.37
56668;BME280;42542;48.360;10.958;2023-03-03T07:51:43;96314.34;;;1.62;94.64
56668;BME280;42542;48.360;10.958;2023-03-03T07:54:45;96315.00;;;1.66;95.14
56668;BME280;42542;48.360;10.958;2023-03-03T07:57:50;96309.50;;;1.69;94.97
56668;BME280;42542;48.360;10.958;2023-03-03T08:04:40;96316.88;;;1.76;94.72
56668;BME280;42542;48.360;10.958;2023-03-03T08:07:43;96323.59;;;1.80;93.92
56668;BME280;42542;48.360;10.958;2023-03-03T08:10:47;96317.38;;;1.81;93.85
56668;BME280;42542;48.360;10.958;2023-03-03T08:13:50;96321.50;;;1.85;94.10
56668;BME280;42542;48.360;10.958;2023-03-03T08:16:52;96322.97;;;1.89;93.55
56668;BME280;42542;48.360;10.958;2023-03-03T08:19:54;96332.38;;;1.93;93.77
56668;BME280;42542;48.360;10.958;2023-03-03T08:22:57;96332.97;;;1.97;93.63
56668;BME280;42542;48.360;10.958;2023-03-03T08:25:58;96337.97;;;2.02;93.30
56668;BME280;42542;48.360;10.958;2023-03-03T08:29:04;96347.22;;;2.07;92.83
56668;BME280;42542;48.360;10.958;2023-03-03T08:32:09;96328.53;;;2.10;92.82
56668;BME280;42542;48.360;10.958;2023-03-03T08:35:12;96336.13;;;2.15;92.77
56668;BME280;42542;48.360;10.958;2023-03-03T08:38:18;96337.50;;;2.20;93.26
56668;BME280;42542;48.360;10.958;2023-03-03T08:41:20;96336.44;;;2.23;92.06
56668;BME280;42542;48.360;10.958;2023-03-03T08:44:22;96327.47;;;2.25;92.30
56668;BME280;42542;48.360;10.958;2023-03-03T08:47:24;96326.91;;;2.33;91.75
56668;BME280;42542;48.360;10.958;2023-03-03T08:50:27;96338.94;;;2.37;91.69
56668;BME280;42542;48.360;10.958;2023-03-03T08:53:30;96335.34;;;2.38;91.93
56668;BME280;42542;48.360;10.958;2023-03-03T08:56:34;96345.34;;;2.46;91.74
56668;BME280;42542;48.360;10.958;2023-03-03T08:59:39;96345.13;;;2.49;90.96
56668;BME280;42542;48.360;10.958;2023-03-03T09:02:42;96344.94;;;2.52;90.94
56668;BME280;42542;48.360;10.958;2023-03-03T09:05:45;96337.63;;;2.55;91.05
56668;BME280;42542;48.360;10.958;2023-03-03T09:08:47;96344.47;;;2.58;90.34
56668;BME280;42542;48.360;10.958;2023-03-03T09:11:53;96336.47;;;2.59;89.68
56668;BME280;42542;48.360;10.958;2023-03-03T09:15:12;96349.72;;;2.70;89.64
56668;BME280;42542;48.360;10.958;2023-03-03T09:18:19;96358.13;;;2.75;89.88
56668;BME280;42542;48.360;10.958;2023-03-03T09:21:25;96366.13;;;2.87;89.74
56668;BME280;42542;48.360;10.958;2023-03-03T09:24:38;96356.19;;;2.90;88.62
56668;BME280;42542;48.360;10.958;2023-03-03T09:27:43;96360.06;;;2.97;88.74
56668;BME280;42542;48.360;10.958;2023-03-03T09:30:48;96374.38;;;3.06;87.86
56668;BME280;42542;48.360;10.958;2023-03-03T09:33:50;96371.94;;;3.16;88.12
56668;BME280;42542;48.360;10.958;2023-03-03T09:36:54;96379.03;;;3.26;88.04
56668;BME280;42542;48.360;10.958;2023-03-03T09:39:56;96374.16;;;3.33;87.54
56668;BME280;42542;48.360;10.958;2023-03-03T09:43:08;96379.50;;;3.44;87.18
56668;BME280;42542;48.360;10.958;2023-03-03T10:00:28;96377.94;;;3.87;86.07
56668;BME280;42542;48.360;10.958;2023-03-03T10:14:27;96378.34;;;4.16;84.39
56668;BME280;42542;48.360;10.958;2023-03-03T10:24:43;96378.47;;;4.37;83.59
56668;BME280;42542;48.360;10.958;2023-03-03T10:27:54;96378.81;;;4.44;84.39
56668;BME280;42542;48.360;10.958;2023-03-03T10:35:01;96377.97;;;4.65;83.32
56668;BME280;42542;48.360;10.958;2023-03-03T10:44:56;96387.34;;;4.81;81.79
56668;BME280;42542;48.360;10.958;2023-03-03T10:48:37;96391.19;;;4.88;81.58
56668;BME280;42542;48.360;10.958;2023-03-03T10:52:27;96394.56;;;4.90;81.54
56668;BME280;42542;48.360;10.958;2023-03-03T11:02:17;96385.91;;;5.20;81.31
56668;BME280;42542;48.360;10.958;2023-03-03T11:36:37;96374.66;;;5.91;77.06
56668;BME280;42542;48.360;10.958;2023-03-03T11:39:45;96375.84;;;5.98;75.44
56668;BME280;42542;48.360;10.958;2023-03-03T11:43:02;96368.22;;;6.05;74.31
56668;BME280;42542;48.360;10.958;2023-03-03T11:46:21;96358.41;;;6.05;73.45
56668;BME280;42542;48.360;10.958;2023-03-03T11:56:22;96341.84;;;6.34;73.27
56668;BME280;42542;48.360;10.958;2023-03-03T12:00:40;96338.47;;;6.41;72.13
56668;BME280;42542;48.360;10.958;2023-03-03T12:03:36;96328.75;;;6.51;72.48
56668;BME280;42542;48.360;10.958;2023-03-03T12:16:58;96348.53;;;6.68;69.87
56668;BME280;42542;48.360;10.958;2023-03-03T12:46:58;96329.69;;;6.81;67.87
56668;BME280;42542;48.360;10.958;2023-03-03T12:50:22;96319.91;;;6.81;68.08
56668;BME280;42542;48.360;10.958;2023-03-03T12:56:57;96327.31;;;6.87;68.67
56668;BME280;42542;48.360;10.958;2023-03-03T13:03:52;96321.59;;;6.92;66.90
56668;BME280;42542;48.360;10.958;2023-03-03T13:07:04;96325.53;;;6.97;68.34
56668;BME280;42542;48.360;10.958;2023-03-03T13:13:51;96324.13;;;7.03;67.62
56668;BME280;42542;48.360;10.958;2023-03-03T13:20:49;96330.59;;;7.10;67.32
56668;BME280;42542;48.360;10.958;2023-03-03T13:27:26;96322.91;;;7.17;67.69
56668;BME280;42542;48.360;10.958;2023-03-03T13:30:33;96316.47;;;7.19;67.68
56668;BME280;42542;48.360;10.958;2023-03-03T13:33:40;96323.19;;;7.23;67.76
56668;BME280;42542;48.360;10.958;2023-03-03T13:36:56;96316.75;;;7.26;67.49
56668;BME280;42542;48.360;10.958;2023-03-03T13:40:16;96313.41;;;7.33;67.35
56668;BME280;42542;48.360;10.958;2023-03-03T13:43:28;96311.16;;;7.38;67.16
56668;BME280;42542;48.360;10.958;2023-03-03T13:47:03;96309.34;;;7.49;67.58
56668;BME280;42542;48.360;10.958;2023-03-03T13:50:19;96299.66;;;7.57;66.50
56668;BME280;42542;48.360;10.958;2023-03-03T14:00:47;96294.47;;;7.75;66.64
56668;BME280;42542;48.360;10.958;2023-03-03T14:07:13;96286.59;;;7.83;64.64
56668;BME280;42542;48.360;10.958;2023-03-03T14:10:25;96281.41;;;7.91;65.26
56668;BME280;42542;48.360;10.958;2023-03-03T14:13:57;96276.88;;;8.01;65.14
56668;BME280;42542;48.360;10.958;2023-03-03T14:20:28;96275.69;;;8.23;65.89
56668;BME280;42542;48.360;10.958;2023-03-03T14:23:58;96275.25;;;8.37;65.85
56668;BME280;42542;48.360;10.958;2023-03-03T14:27:20;96277.31;;;8.43;64.77
56668;BME280;42542;48.360;10.958;2023-03-03T14:30:36;96283.31;;;8.55;65.54
56668;BME280;42542;48.360;10.958;2023-03-03T14:33:59;96274.31;;;8.56;64.23
56668;BME280;42542;48.360;10.958;2023-03-03T14:37:27;96273.50;;;8.55;62.13
56668;BME280;42542;48.360;10.958;2023-03-03T14:40:31;96264.41;;;8.48;63.52
56668;BME280;42542;48.360;10.958;2023-03-03T14:43:45;96265.50;;;8.55;64.27
56668;BME280;42542;48.360;10.958;2023-03-03T14:47:01;96265.88;;;8.60;64.20
56668;BME280;42542;48.360;10.958;2023-03-03T14:53:36;96261.88;;;8.74;63.36
56668;BME280;42542;48.360;10.958;2023-03-03T14:56:56;96265.94;;;8.78;63.39
56668;BME280;42542;48.360;10.958;2023-03-03T15:00:24;96265.19;;;8.86;62.70
56668;BME280;42542;48.360;10.958;2023-03-03T15:03:27;96260.38;;;8.89;63.20
56668;BME280;42542;48.360;10.958;2023-03-03T15:06:50;96268.00;;;9.02;62.77
56668;BME280;42542;48.360;10.958;2023-03-03T15:09:52;96271.44;;;9.12;63.09
56668;BME280;42542;48.360;10.958;2023-03-03T15:12:54;96266.72;;;9.24;62.06
56668;BME280;42542;48.360;10.958;2023-03-03T15:19:27;96274.41;;;9.62;60.58
56668;BME280;42542;48.360;10.958;2023-03-03T15:30:47;96268.59;;;9.67;59.43
56668;BME280;42542;48.360;10.958;2023-03-03T15:33:28;96268.59;;;9.67;59.88
56668;BME280;42542;48.360;10.958;2023-03-03T15:37:03;96276.28;;;9.70;59.31
56668;BME280;42542;48.360;10.958;2023-03-03T15:40:34;96269.91;;;9.63;59.38
56668;BME280;42542;48.360;10.958;2023-03-03T15:57:54;96273.66;;;9.17;60.50
56668;BME280;42542;48.360;10.958;2023-03-03T16:04:24;96267.00;;;9.03;61.50
56668;BME280;42542;48.360;10.958;2023-03-03T16:07:57;96277.59;;;8.95;61.72
56668;BME280;42542;48.360;10.958;2023-03-03T16:11:07;96286.06;;;8.90;62.62
56668;BME280;42542;48.360;10.958;2023-03-03T16:28:18;96284.25;;;8.27;65.26
56668;BME280;42542;48.360;10.958;2023-03-03T16:31:40;96285.00;;;8.09;65.96
56668;BME280;42542;48.360;10.958;2023-03-03T16:34:59;96294.84;;;7.99;66.01
56668;BME280;42542;48.360;10.958;2023-03-03T16:38:18;96297.25;;;7.83;66.25
56668;BME280;42542;48.360;10.958;2023-03-03T16:48:21;96313.69;;;7.40;67.65
56668;BME280;42542;48.360;10.958;2023-03-03T16:51:36;96318.44;;;7.27;68.20
56668;BME280;42542;48.360;10.958;2023-03-03T17:05:40;96338.47;;;6.72;70.27
56668;BME280;42542;48.360;10.958;2023-03-03T17:18:28;96356.69;;;6.15;72.98
56668;BME280;42542;48.360;10.958;2023-03-03T17:25:31;96350.59;;;5.83;74.27
56668;BME280;42542;48.360;10.958;2023-03-03T17:32:21;96365.91;;;5.59;75.01
56668;BME280;42542;48.360;10.958;2023-03-03T17:35:36;96366.94;;;5.46;75.28
56668;BME280;42542;48.360;10.958;2023-03-03T17:42:35;96377.72;;;5.23;76.16
56668;BME280;42542;48.360;10.958;2023-03-03T17:45:42;96381.13;;;5.14;76.72
56668;BME280;42542;48.360;10.958;2023-03-03T17:52:38;96390.06;;;4.90;77.49
56668;BME280;42542;48.360;10.958;2023-03-03T17:56:21;96398.06;;;4.79;78.36
56668;BME280;42542;48.360;10.958;2023-03-03T17:59:54;96395.44;;;4.68;78.49
56668;BME280;42542;48.360;10.958;2023-03-03T18:06:33;96391.81;;;4.47;79.13
56668;BME280;42542;48.360;10.958;2023-03-03T18:10:14;96403.34;;;4.35;79.30
56668;BME280;42542;48.360;10.958;2023-03-03T18:19:55;96399.25;;;4.08;80.61
56668;BME280;42542;48.360;10.958;2023-03-03T18:26:40;96406.91;;;3.89;81.14
56668;BME280;42542;48.360;10.958;2023-03-03T18:33:11;96406.38;;;3.73;81.77
56668;BME280;42542;48.360;10.958;2023-03-03T18:39:47;96413.88;;;3.55;82.72
56668;BME280;42542;48.360;10.958;2023-03-03T18:42:50;96422.25;;;3.49;82.36
56668;BME280;42542;48.360;10.958;2023-03-03T18:45:54;96418.38;;;3.42;82.71
56668;BME280;42542;48.360;10.958;2023-03-03T18:49:03;96428.69;;;3.34;83.42
56668;BME280;42542;48.360;10.958;2023-03-03T18:52:21;96435.38;;;3.27;83.67
56668;BME280;42542;48.360;10.958;2023-03-03T18:55:25;96425.34;;;3.19;83.34
56668;BME280;42542;48.360;10.958;2023-03-03T19:01:41;96429.75;;;3.07;84.45
56668;BME280;42542;48.360;10.958;2023-03-03T19:04:50;96422.38;;;3.00;84.55
56668;BME280;42542;48.360;10.958;2023-03-03T19:08:02;96432.53;;;2.93;85.22
56668;BME280;42542;48.360;10.958;2023-03-03T19:11:04;96432.25;;;2.85;85.19
56668;BME280;42542;48.360;10.958;2023-03-03T19:20:49;96438.59;;;2.70;85.58
56668;BME280;42542;48.360;10.958;2023-03-03T19:23:54;96448.75;;;2.63;86.05
56668;BME280;42542;48.360;10.958;2023-03-03T19:30:19;96453.91;;;2.52;86.02
56668;BME280;42542;48.360;10.958;2023-03-03T19:36:50;96453.94;;;2.40;87.07
56668;BME280;42542;48.360;10.958;2023-03-03T19:43:32;96457.44;;;2.27;86.82
56668;BME280;42542;48.360;10.958;2023-03-03T19:53:20;96473.69;;;2.09;87.08
56668;BME280;42542;48.360;10.958;2023-03-03T19:56:40;96472.28;;;2.03;87.74
56668;BME280;42542;48.360;10.958;2023-03-03T19:59:53;96472.69;;;1.97;87.46
56668;BME280;42542;48.360;10.958;2023-03-03T20:03:28;96469.53;;;1.92;87.65
56668;BME280;42542;48.360;10.958;2023-03-03T20:06:54;96467.50;;;1.83;87.58
56668;BME280;42542;48.360;10.958;2023-03-03T20:16:40;96468.53;;;1.68;87.73
56668;BME280;42542;48.360;10.958;2023-03-03T20:23:20;96470.94;;;1.58;88.72
56668;BME280;42542;48.360;10.958;2023-03-03T20:26:33;96480.81;;;1.54;87.96
56668;BME280;42542;48.360;10.958;2023-03-03T20:45:56;96481.47;;;1.31;89.67
56668;BME280;42542;48.360;10.958;2023-03-03T20:52:35;96484.72;;;1.22;90.06
56668;BME280;42542;48.360;10.958;2023-03-03T20:55:56;96483.97;;;1.20;89.41
56668;BME280;42542;48.360;10.958;2023-03-03T21:05:34;96486.41;;;1.09;89.91
56668;BME280;42542;48.360;10.958;2023-03-03T21:08:52;96489.19;;;1.07;90.26
56668;BME280;42542;48.360;10.958;2023-03-03T21:11:57;96493.13;;;1.00;90.33
56668;BME280;42542;48.360;10.958;2023-03-03T21:15:00;96496.72;;;0.99;90.30
56668;BME280;42542;48.360;10.958;2023-03-03T21:18:19;96499.63;;;0.95;90.23
56668;BME280;42542;48.360;10.958;2023-03-03T21:21:23;96494.75;;;0.89;90.70
56668;BME280;42542;48.360;10.958;2023-03-03T21:24:48;96501.78;;;0.88;90.34
56668;BME280;42542;48.360;10.958;2023-03-03T21:27:52;96495.31;;;0.79;90.83
56668;BME280;42542;48.360;10.958;2023-03-03T21:34:16;96489.41;;;0.76;90.55
56668;BME280;42542;48.360;10.958;2023-03-03T21:37:53;96507.06;;;0.74;91.49
56668;BME280;42542;48.360;10.958;2023-03-03T21:41:00;96505.56;;;0.70;91.24
56668;BME280;42542;48.360;10.958;2023-03-03T21:47:36;96504.28;;;0.63;91.26
56668;BME280;42542;48.360;10.958;2023-03-03T21:50:38;96503.69;;;0.58;91.25
56668;BME280;42542;48.360;10.958;2023-03-03T21:53:44;96502.09;;;0.55;91.87
56668;BME280;42542;48.360;10.958;2023-03-03T21:56:47;96504.06;;;0.52;91.41
56668;BME280;42542;48.360;10.958;2023-03-03T21:59:50;96500.97;;;0.45;91.65
56668;BME280;42542;48.360;10.958;2023-03-03T22:02:52;96510.56;;;0.46;91.40
56668;BME280;42542;48.360;10.958;2023-03-03T22:05:55;96504.66;;;0.43;91.63
56668;BME280;42542;48.360;10.958;2023-03-03T22:08:58;96503.03;;;0.40;91.78
56668;BME280;42542;48.360;10.958;2023-03-03T22:12:00;96504.06;;;0.37;92.56
56668;BME280;42542;48.360;10.958;2023-03-03T22:15:02;96512.16;;;0.34;92.29
56668;BME280;42542;48.360;10.958;2023-03-03T22:18:04;96513.09;;;0.33;92.11
56668;BME280;42542;48.360;10.958;2023-03-03T22:21:07;96515.88;;;0.30;92.75
56668;BME280;42542;48.360;10.958;2023-03-03T22:24:08;96513.47;;;0.27;92.26